Terminal Aerodrome Forecast
Issued by NWS Knoxville/Tri Cities, TN

Home | Current Version | Previous Version | Text Only | Print | Product List | Glossary On
Versions: 1 2 3 4 5 6 7 8 9 10 11 12 13 14 15 16 17 18 19 20 21 22 23 24 25 26 27 28 29 30 31 32 33 34 35 36 37 38
000
FTUS44 KMRX 231905 AAB
TAFTYS
TAF AMD
KTYS 231905Z 2319/2418 22010KT P6SM SCT025 OVC040
      TEMPO 2319/2322 5SM -SHRA BR OVC025
     FM232200 23011KT P6SM BKN040
     FM240200 23006KT P6SM OVC040
     FM241400 24010G16KT P6SM SCT040 BKN080=

USA.gov is the U.S. government's official web portal to all federal, state and local government web resources and services.